Time;durP1;ratioP1;P1;durP2;ratioP2;P2;SDS_P1;SDS_P2;PMS_P1;PMS_P2;Temp;Humidity;BMP_temperature;BMP_pressure;BME280_temperature;BME280_humidity;BME280_pressure;Samples;Min_cycle;Max_cycle;Signal;HPM_P1;HPM_P2
2023/01/17 00:01:11;;;;;;;4.10;0.80;;;4.00;99.90;;;;;;5051513;28;20120;-75
2023/01/17 00:09:51;;;;;;;2.28;0.75;;;4.00;99.90;;;;;;5051113;28;20056;-75
2023/01/17 00:11:55;;;;;;;1.75;0.63;;;4.10;99.90;;;;;;5037618;28;20045;-75
2023/01/17 00:14:21;;;;;;;0.20;0.20;;;4.10;99.90;;;;;;5029668;28;20041;-75
2023/01/17 00:16:46;;;;;;;0.65;0.22;;;4.00;99.90;;;;;;5032270;28;20068;-75
2023/01/17 01:33:45;;;;;;;5.40;0.70;;;3.40;99.90;;;;;;5035436;28;20045;-75
2023/01/17 01:36:11;;;;;;;2.72;0.68;;;3.40;99.90;;;;;;5048017;28;20055;-75
2023/01/17 01:38:37;;;;;;;2.13;0.52;;;3.40;99.90;;;;;;5037493;28;20400;-75
2023/01/17 01:41:03;;;;;;;4.65;0.73;;;3.40;99.90;;;;;;5015672;28;20037;-75
2023/01/17 01:43:49;;;;;;;2.53;0.68;;;3.40;99.90;;;;;;5049537;28;20124;-74
2023/01/17 01:46:21;;;;;;;3.38;0.50;;;3.50;99.90;;;;;;5042754;28;20397;-75
2023/01/17 01:49:00;;;;;;;2.60;1.13;;;3.50;99.90;;;;;;5039061;28;20084;-75
2023/01/17 01:51:37;;;;;;;3.67;0.60;;;3.40;99.90;;;;;;5035124;28;20504;-75
2023/01/17 01:54:15;;;;;;;3.63;0.60;;;3.40;99.90;;;;;;5035259;28;20060;-75
2023/01/17 01:56:41;;;;;;;4.75;0.60;;;3.30;99.90;;;;;;5030423;28;20052;-75
2023/01/17 01:59:10;;;;;;;3.65;0.70;;;3.30;99.90;;;;;;5042195;28;20056;-75
2023/01/17 02:01:36;;;;;;;2.95;0.35;;;3.40;99.90;;;;;;5050686;28;20488;-75
2023/01/17 02:04:03;;;;;;;4.72;0.60;;;3.40;99.90;;;;;;5038658;28;20084;-75
2023/01/17 02:06:42;;;;;;;3.78;0.57;;;3.40;99.90;;;;;;5045750;28;20041;-76
2023/01/17 02:09:10;;;;;;;4.70;0.73;;;3.40;99.90;;;;;;5032949;28;20053;-75
2023/01/17 02:11:37;;;;;;;5.97;0.65;;;3.40;99.90;;;;;;5041689;28;20393;-75
2023/01/17 02:14:03;;;;;;;8.48;1.05;;;3.40;99.90;;;;;;5043470;28;20554;-75
2023/01/17 02:16:59;;;;;;;4.47;0.80;;;3.30;99.90;;;;;;5049370;28;20048;-75
2023/01/17 02:19:47;;;;;;;3.83;0.65;;;3.30;99.90;;;;;;5062560;28;20037;-75
2023/01/17 02:22:56;;;;;;;4.88;0.85;;;3.30;99.90;;;;;;5054312;28;20048;-75
2023/01/17 02:25:40;;;;;;;6.18;0.80;;;3.20;99.90;;;;;;4974307;28;20054;-75
2023/01/17 02:28:44;;;;;;;4.15;0.73;;;3.30;99.90;;;;;;5037195;28;20094;-75
2023/01/17 02:31:16;;;;;;;3.67;0.70;;;3.20;99.90;;;;;;5035324;28;20048;-75
2023/01/17 02:34:09;;;;;;;2.45;0.50;;;3.20;99.90;;;;;;5032148;28;20495;-74
2023/01/17 02:37:04;;;;;;;4.25;1.35;;;3.30;99.90;;;;;;5039317;28;20045;-75
2023/01/17 02:39:36;;;;;;;7.15;1.15;;;3.20;99.90;;;;;;5048362;28;20539;-75
2023/01/17 02:42:17;;;;;;;5.95;0.88;;;3.20;99.90;;;;;;5055271;28;20045;-75
2023/01/17 02:44:43;;;;;;;7.82;0.98;;;3.20;99.90;;;;;;5048852;28;20041;-75
2023/01/17 02:47:22;;;;;;;6.82;0.98;;;3.20;99.90;;;;;;5021864;28;20052;-76
2023/01/17 02:49:51;;;;;;;3.20;0.63;;;3.20;99.90;;;;;;5053206;28;20408;-75
2023/01/17 02:52:57;;;;;;;3.28;0.73;;;3.20;99.90;;;;;;5064781;28;20048;-75
2023/01/17 02:55:38;;;;;;;3.15;0.60;;;3.20;99.90;;;;;;5062087;28;20053;-75
2023/01/17 02:58:30;;;;;;;5.03;0.68;;;3.30;99.90;;;;;;5053144;28;20056;-76
2023/01/17 03:01:26;;;;;;;4.75;0.77;;;3.20;99.90;;;;;;5046729;28;20048;-76
2023/01/17 03:04:07;;;;;;;5.28;0.70;;;3.20;99.90;;;;;;5034476;28;20045;-76
2023/01/17 03:06:46;;;;;;;4.90;0.80;;;3.20;99.90;;;;;;5053377;28;20064;-76
2023/01/17 03:09:14;;;;;;;3.40;0.70;;;3.20;99.90;;;;;;5067690;28;20045;-76
2023/01/17 03:11:41;;;;;;;5.13;1.17;;;3.20;99.90;;;;;;5052251;28;20036;-76
2023/01/17 03:14:07;;;;;;;7.70;0.90;;;3.30;99.90;;;;;;5044853;28;20403;-75
2023/01/17 03:16:33;;;;;;;6.32;0.88;;;3.30;99.90;;;;;;5061634;28;20052;-76
2023/01/17 03:18:58;;;;;;;3.67;0.90;;;3.30;99.90;;;;;;5052243;28;20497;-75
2023/01/17 03:21:24;;;;;;;6.05;0.75;;;3.30;99.90;;;;;;5047808;28;20048;-75
2023/01/17 03:23:50;;;;;;;2.80;0.85;;;3.30;99.90;;;;;;5051807;28;20084;-76
2023/01/17 03:26:16;;;;;;;6.43;0.75;;;3.30;99.90;;;;;;5049851;28;20048;-75
2023/01/17 03:28:41;;;;;;;7.40;0.82;;;3.30;99.90;;;;;;5024537;28;20128;-75
2023/01/17 03:31:07;;;;;;;3.90;0.77;;;3.30;99.90;;;;;;5042336;28;20045;-75
2023/01/17 03:33:34;;;;;;;3.75;0.60;;;3.20;99.90;;;;;;5051437;28;20036;-75
2023/01/17 03:35:59;;;;;;;5.05;1.05;;;3.20;99.90;;;;;;5046832;28;20079;-75
2023/01/17 03:38:27;;;;;;;5.68;0.63;;;3.20;99.90;;;;;;5035921;28;20450;-75
2023/01/17 03:40:53;;;;;;;7.38;0.70;;;3.20;99.90;;;;;;5035464;28;20051;-76
2023/01/17 03:43:18;;;;;;;4.15;0.75;;;3.10;99.90;;;;;;5052067;28;20467;-75
2023/01/17 03:45:47;;;;;;;7.43;0.95;;;3.10;99.90;;;;;;5047646;28;20043;-75
2023/01/17 03:48:12;;;;;;;4.85;1.17;;;3.10;99.90;;;;;;5044142;28;20046;-75
2023/01/17 03:50:38;;;;;;;7.85;1.10;;;3.00;99.90;;;;;;5055707;28;20393;-75
2023/01/17 03:53:04;;;;;;;5.25;0.73;;;3.00;99.90;;;;;;5051249;28;20037;-75
2023/01/17 03:55:29;;;;;;;5.35;1.20;;;3.00;99.90;;;;;;5048892;28;20551;-75
2023/01/17 03:57:55;;;;;;;5.00;0.65;;;3.10;99.90;;;;;;5035062;28;20056;-76
2023/01/17 04:00:21;;;;;;;4.68;0.70;;;3.20;99.90;;;;;;5049568;28;20174;-75
2023/01/17 04:02:47;;;;;;;3.80;0.70;;;3.10;99.90;;;;;;5043943;28;20095;-76
2023/01/17 04:05:12;;;;;;;3.15;0.75;;;3.10;99.90;;;;;;5015908;28;20069;-76
2023/01/17 04:07:38;;;;;;;9.95;0.90;;;3.10;99.90;;;;;;5051519;28;20065;-75
2023/01/17 04:10:05;;;;;;;4.82;0.70;;;3.10;99.90;;;;;;5050606;28;20143;-75
2023/01/17 04:12:31;;;;;;;6.07;0.80;;;3.00;99.90;;;;;;5051605;28;20127;-75
2023/01/17 04:14:57;;;;;;;5.85;0.80;;;3.00;99.90;;;;;;5067791;28;20441;-75
2023/01/17 04:17:23;;;;;;;6.18;1.05;;;3.00;99.90;;;;;;5056542;28;20052;-75
2023/01/17 04:19:49;;;;;;;8.20;0.77;;;2.90;99.90;;;;;;5033213;28;20048;-75
2023/01/17 04:22:15;;;;;;;7.25;1.23;;;2.90;99.90;;;;;;5032465;28;20128;-75
2023/01/17 04:24:40;;;;;;;5.95;0.70;;;2.80;99.90;;;;;;5051202;28;20396;-75
2023/01/17 04:27:06;;;;;;;5.43;0.70;;;2.90;99.90;;;;;;5050857;28;20041;-76
2023/01/17 04:29:31;;;;;;;7.65;0.80;;;2.80;99.90;;;;;;5033930;28;20045;-76
2023/01/17 04:31:57;;;;;;;4.10;0.60;;;2.80;99.90;;;;;;5047376;28;20052;-76
2023/01/17 04:34:23;;;;;;;3.33;1.10;;;2.90;99.90;;;;;;5060323;28;20081;-75
2023/01/17 04:36:48;;;;;;;3.83;0.60;;;2.80;99.90;;;;;;5044894;28;20041;-76
2023/01/17 04:39:14;;;;;;;5.40;0.70;;;2.80;99.90;;;;;;5050332;28;20052;-75
2023/01/17 04:41:39;;;;;;;5.60;0.77;;;2.80;99.90;;;;;;5051931;28;20490;-75
2023/01/17 04:44:05;;;;;;;6.38;0.93;;;2.70;99.90;;;;;;5034228;28;20044;-75
2023/01/17 04:46:31;;;;;;;4.72;0.88;;;2.70;99.90;;;;;;5029948;28;20510;-75
2023/01/17 04:48:57;;;;;;;10.93;1.65;;;2.80;99.90;;;;;;5052164;28;20052;-75
2023/01/17 04:51:23;;;;;;;5.68;1.00;;;2.80;99.90;;;;;;5047471;28;20075;-75
2023/01/17 04:53:49;;;;;;;7.80;0.98;;;2.80;99.90;;;;;;5034546;28;20116;-75
2023/01/17 04:56:14;;;;;;;9.50;0.90;;;2.70;99.90;;;;;;5049617;28;20446;-75
2023/01/17 04:58:40;;;;;;;4.63;0.60;;;2.70;99.90;;;;;;5067566;28;20044;-75
2023/01/17 05:01:06;;;;;;;8.27;1.00;;;2.70;99.90;;;;;;5064836;28;20486;-75
2023/01/17 05:03:33;;;;;;;6.38;0.90;;;2.70;99.90;;;;;;5050933;28;20037;-75
2023/01/17 05:05:59;;;;;;;7.35;0.90;;;2.60;99.90;;;;;;5034297;28;20045;-75
2023/01/17 05:08:25;;;;;;;6.93;1.20;;;2.60;99.90;;;;;;5049892;28;20128;-75
2023/01/17 05:10:51;;;;;;;5.43;0.75;;;2.50;99.90;;;;;;5049429;28;20120;-75
2023/01/17 05:13:17;;;;;;;5.03;0.80;;;2.50;99.90;;;;;;5049186;28;20037;-75
2023/01/17 05:15:43;;;;;;;9.00;0.85;;;2.50;99.90;;;;;;5050692;28;20045;-75
2023/01/17 05:18:12;;;;;;;9.27;1.83;;;2.50;99.90;;;;;;5049907;28;20047;-75
2023/01/17 05:20:38;;;;;;;3.00;1.27;;;2.50;99.90;;;;;;5042680;28;20044;-75
2023/01/17 05:23:04;;;;;;;4.22;0.60;;;2.60;99.90;;;;;;5050769;28;20037;-75
2023/01/17 05:25:31;;;;;;;4.45;0.70;;;2.50;99.90;;;;;;5049825;28;20401;-75
2023/01/17 05:27:58;;;;;;;5.47;0.60;;;2.50;99.90;;;;;;5050594;28;20447;-75
2023/01/17 05:30:25;;;;;;;5.05;0.70;;;2.50;99.90;;;;;;5045210;28;20110;-75
2023/01/17 05:32:53;;;;;;;4.15;0.63;;;2.40;99.90;;;;;;5059794;28;20499;-74
2023/01/17 05:35:22;;;;;;;5.28;0.70;;;2.40;99.90;;;;;;5054492;28;20037;-75
2023/01/17 05:37:49;;;;;;;3.05;1.02;;;2.40;99.90;;;;;;5054135;28;20163;-74
2023/01/17 05:40:20;;;;;;;3.05;0.50;;;2.30;99.90;;;;;;5054287;28;20123;-74
2023/01/17 05:42:51;;;;;;;5.72;1.00;;;2.30;99.90;;;;;;5055157;28;20040;-74
2023/01/17 05:45:18;;;;;;;1.77;0.50;;;2.30;99.90;;;;;;5051731;28;20045;-74
2023/01/17 05:47:44;;;;;;;4.40;0.63;;;2.30;99.90;;;;;;5052620;28;20090;-74
2023/01/17 05:50:16;;;;;;;4.10;0.70;;;2.20;99.90;;;;;;5023966;28;20067;-74
2023/01/17 05:52:57;;;;;;;4.50;0.47;;;2.20;99.90;;;;;;5036374;28;20148;-74
2023/01/17 05:55:25;;;;;;;5.10;0.75;;;2.10;99.90;;;;;;5042402;28;20048;-74
2023/01/17 05:57:52;;;;;;;2.90;0.60;;;2.20;99.90;;;;;;5047205;28;20094;-74
2023/01/17 06:00:18;;;;;;;1.63;0.40;;;2.20;99.90;;;;;;5049423;28;20044;-74
2023/01/17 06:02:44;;;;;;;3.03;0.50;;;2.20;99.90;;;;;;5052221;28;20167;-74
2023/01/17 06:05:11;;;;;;;1.20;0.32;;;2.10;99.90;;;;;;5053716;28;20065;-74
2023/01/17 06:07:37;;;;;;;2.92;0.80;;;2.10;99.90;;;;;;5047080;28;20486;-74
2023/01/17 06:10:06;;;;;;;2.38;0.55;;;2.10;99.90;;;;;;5048923;28;20041;-74
2023/01/17 06:12:31;;;;;;;2.67;0.63;;;2.20;99.90;;;;;;5035866;28;20067;-74
2023/01/17 06:14:57;;;;;;;3.92;0.60;;;2.30;99.90;;;;;;5053138;28;20499;-74
2023/01/17 06:17:22;;;;;;;3.75;0.57;;;2.30;99.90;;;;;;5066201;28;20049;-74
2023/01/17 06:19:48;;;;;;;4.35;0.85;;;2.40;99.90;;;;;;5043323;28;20044;-74
2023/01/17 06:22:13;;;;;;;4.65;0.73;;;2.40;99.90;;;;;;5066064;28;20045;-74
2023/01/17 06:24:39;;;;;;;4.28;0.70;;;2.30;99.90;;;;;;5053189;28;20397;-74
2023/01/17 06:27:08;;;;;;;4.35;0.50;;;2.20;99.90;;;;;;5051295;28;20044;-74
2023/01/17 06:29:33;;;;;;;3.55;0.55;;;2.20;99.90;;;;;;5052376;28;20099;-75
2023/01/17 06:31:59;;;;;;;4.75;0.70;;;2.30;99.90;;;;;;5036371;28;20040;-74
2023/01/17 06:34:24;;;;;;;3.25;0.60;;;2.30;99.90;;;;;;5053361;28;20509;-75
2023/01/17 06:36:50;;;;;;;6.40;0.70;;;2.20;99.90;;;;;;5053115;28;20048;-74
2023/01/17 06:39:16;;;;;;;4.40;0.77;;;2.10;99.90;;;;;;5053166;28;20045;-74
2023/01/17 06:41:41;;;;;;;4.68;0.60;;;2.10;99.90;;;;;;5054080;28;20041;-74
2023/01/17 06:44:08;;;;;;;3.60;0.50;;;2.10;99.90;;;;;;5043540;28;20120;-74
2023/01/17 06:46:34;;;;;;;4.07;0.68;;;2.10;99.90;;;;;;5048112;28;20098;-74
2023/01/17 06:48:59;;;;;;;5.50;0.90;;;2.10;99.90;;;;;;5051955;28;20459;-74
2023/01/17 06:51:26;;;;;;;2.33;0.50;;;2.00;99.90;;;;;;5046303;28;20554;-74
2023/01/17 06:53:52;;;;;;;7.35;1.42;;;2.10;99.90;;;;;;5052780;28;20489;-74
2023/01/17 06:56:18;;;;;;;5.53;1.75;;;2.00;99.90;;;;;;5042458;28;20048;-74
2023/01/17 06:58:47;;;;;;;2.60;0.43;;;1.90;99.90;;;;;;5047466;28;20437;-74
2023/01/17 07:01:12;;;;;;;3.88;0.60;;;1.90;99.90;;;;;;5034343;28;20529;-74
2023/01/17 07:03:38;;;;;;;4.78;0.70;;;1.90;99.90;;;;;;5051337;28;20121;-74
2023/01/17 07:06:04;;;;;;;4.55;0.90;;;1.90;99.90;;;;;;5070131;28;20052;-74
2023/01/17 07:08:30;;;;;;;5.88;1.45;;;1.90;99.90;;;;;;5035369;28;20051;-74
2023/01/17 07:11:04;;;;;;;4.43;0.85;;;1.80;99.90;;;;;;5045811;28;20036;-74
2023/01/17 07:13:33;;;;;;;5.40;0.80;;;1.80;99.90;;;;;;5019319;28;20464;-74
2023/01/17 07:16:03;;;;;;;2.80;0.70;;;1.80;99.90;;;;;;5035956;28;20048;-74
2023/01/17 07:18:29;;;;;;;3.83;0.70;;;1.80;99.90;;;;;;5033148;28;20511;-74
2023/01/17 07:20:54;;;;;;;3.53;0.60;;;1.80;99.90;;;;;;5050784;28;20492;-74
2023/01/17 07:23:21;;;;;;;5.55;0.90;;;1.70;99.90;;;;;;5064743;28;20090;-74
2023/01/17 07:25:58;;;;;;;3.53;0.73;;;1.80;99.90;;;;;;5035006;28;20048;-74
2023/01/17 07:28:25;;;;;;;5.07;0.88;;;1.80;99.90;;;;;;5046444;28;20048;-74
2023/01/17 07:30:51;;;;;;;4.85;0.80;;;1.80;99.90;;;;;;5043101;28;20047;-74
2023/01/17 07:33:17;;;;;;;7.40;0.80;;;1.70;99.90;;;;;;5034875;28;20032;-74
2023/01/17 07:35:43;;;;;;;3.20;0.70;;;1.70;99.90;;;;;;5051463;28;20044;-74
2023/01/17 07:38:14;;;;;;;2.60;0.90;;;1.70;99.90;;;;;;5050428;28;20049;-74
2023/01/17 07:40:39;;;;;;;5.10;1.30;;;1.70;99.90;;;;;;5066859;28;20040;-74
2023/01/17 07:43:12;;;;;;;3.15;0.80;;;1.80;99.90;;;;;;5048822;28;20565;-74
2023/01/17 07:45:49;;;;;;;2.47;0.75;;;1.80;99.90;;;;;;5033980;28;20049;-74
2023/01/17 07:48:16;;;;;;;3.05;0.73;;;1.80;99.90;;;;;;5047755;28;20037;-74
2023/01/17 07:50:42;;;;;;;4.03;0.70;;;1.70;99.90;;;;;;5067840;28;20098;-74
2023/01/17 07:53:08;;;;;;;3.50;0.68;;;1.70;99.90;;;;;;5050805;28;20044;-74
2023/01/17 07:55:34;;;;;;;2.25;0.40;;;1.80;99.90;;;;;;5050532;28;20049;-74
2023/01/17 07:57:59;;;;;;;2.40;0.65;;;1.80;99.90;;;;;;5025213;28;20044;-74
2023/01/17 08:00:26;;;;;;;5.05;0.70;;;1.80;99.90;;;;;;5052014;28;20044;-74
2023/01/17 08:03:00;;;;;;;3.40;0.70;;;1.80;99.90;;;;;;5050440;28;20045;-74
2023/01/17 08:05:26;;;;;;;2.75;0.52;;;2.00;99.90;;;;;;5032756;28;20498;-74
2023/01/17 08:07:52;;;;;;;1.95;0.90;;;1.90;99.90;;;;;;5052180;28;20046;-74
2023/01/17 08:10:18;;;;;;;1.95;0.60;;;1.80;99.90;;;;;;5043945;28;20412;-75
2023/01/17 08:12:45;;;;;;;3.50;0.80;;;1.90;99.90;;;;;;5068543;28;20032;-75
2023/01/17 08:15:13;;;;;;;1.42;0.60;;;1.90;99.90;;;;;;5049149;28;20436;-74
2023/01/17 08:17:38;;;;;;;5.53;0.68;;;2.00;99.90;;;;;;5047435;28;20052;-75
2023/01/17 08:20:07;;;;;;;5.22;0.93;;;2.20;99.90;;;;;;5042770;28;20044;-74
2023/01/17 08:22:33;;;;;;;5.20;0.88;;;2.10;99.90;;;;;;5035386;28;20131;-75
2023/01/17 08:24:58;;;;;;;3.63;0.57;;;2.10;99.90;;;;;;5032456;28;20605;-75
2023/01/17 08:27:27;;;;;;;4.95;0.73;;;2.10;99.90;;;;;;5030409;28;20040;-75
2023/01/17 08:29:53;;;;;;;4.10;0.77;;;2.00;99.90;;;;;;5048770;28;20056;-74
2023/01/17 08:32:20;;;;;;;7.32;0.90;;;2.10;99.90;;;;;;5050437;28;20049;-75
2023/01/17 08:34:46;;;;;;;5.07;0.70;;;2.00;99.90;;;;;;5049685;28;20048;-75
2023/01/17 08:37:12;;;;;;;3.67;0.70;;;2.00;99.90;;;;;;5042519;28;20060;-75
2023/01/17 08:39:37;;;;;;;3.35;0.73;;;2.10;99.90;;;;;;5048793;28;20041;-75
2023/01/17 08:42:03;;;;;;;5.72;0.90;;;2.20;99.90;;;;;;5048556;28;20057;-75
2023/01/17 08:44:29;;;;;;;3.67;0.63;;;2.30;99.90;;;;;;5049551;28;20041;-75
2023/01/17 08:46:54;;;;;;;2.38;0.73;;;2.20;99.90;;;;;;5055360;28;20037;-75
2023/01/17 08:49:20;;;;;;;4.55;0.68;;;2.20;99.90;;;;;;5055307;28;20041;-71
2023/01/17 08:51:45;;;;;;;6.03;0.90;;;2.20;99.90;;;;;;5067267;28;20036;-69
2023/01/17 08:54:13;;;;;;;8.77;1.55;;;2.40;99.90;;;;;;5037142;28;20044;-79
2023/01/17 08:56:41;;;;;;;2.95;0.40;;;2.40;99.90;;;;;;5040655;28;20052;-81
2023/01/17 08:59:09;;;;;;;5.13;1.00;;;2.50;99.90;;;;;;5049520;28;20051;-75
2023/01/17 09:01:39;;;;;;;3.58;0.60;;;2.50;99.90;;;;;;5049584;28;20449;-75
2023/01/17 09:04:05;;;;;;;5.13;0.80;;;2.40;99.90;;;;;;5048442;28;20061;-75
2023/01/17 09:06:34;;;;;;;3.00;0.70;;;2.30;99.90;;;;;;5039130;28;20128;-74
2023/01/17 09:09:00;;;;;;;4.15;0.82;;;2.30;99.90;;;;;;5050946;28;20052;-74
2023/01/17 09:11:26;;;;;;;4.63;1.13;;;2.50;99.90;;;;;;5049381;28;20473;-74
2023/01/17 09:13:52;;;;;;;5.15;0.88;;;2.40;99.90;;;;;;5043589;28;20041;-74
2023/01/17 09:16:17;;;;;;;5.43;0.90;;;2.50;99.90;;;;;;5049899;28;20473;-74
2023/01/17 09:18:43;;;;;;;2.83;0.50;;;2.40;99.90;;;;;;5045538;28;20045;-74
2023/01/17 09:21:16;;;;;;;5.35;0.77;;;2.40;99.90;;;;;;5030329;28;20076;-74
2023/01/17 09:23:42;;;;;;;2.28;0.70;;;2.50;99.90;;;;;;5051261;28;20033;-74
2023/01/17 09:26:17;;;;;;;2.92;0.93;;;2.60;99.90;;;;;;5067975;28;20101;-74
2023/01/17 09:28:43;;;;;;;4.78;0.82;;;2.70;99.90;;;;;;5048204;28;20060;-74
2023/01/17 09:31:08;;;;;;;4.95;1.40;;;2.70;99.90;;;;;;5060201;28;20037;-74
2023/01/17 09:33:35;;;;;;;4.38;0.80;;;2.70;99.90;;;;;;5036709;28;20049;-74
2023/01/17 09:36:03;;;;;;;4.32;0.65;;;2.80;99.90;;;;;;5047507;28;20044;-74
2023/01/17 09:38:29;;;;;;;3.85;0.90;;;2.80;99.90;;;;;;5058337;28;20102;-74
2023/01/17 09:40:54;;;;;;;7.88;1.77;;;2.90;99.90;;;;;;5048044;28;20036;-74
2023/01/17 09:43:36;;;;;;;3.55;0.70;;;3.00;99.90;;;;;;5036516;28;20056;-74
2023/01/17 09:46:04;;;;;;;5.03;0.80;;;2.90;99.90;;;;;;5050760;28;20481;-74
2023/01/17 09:48:36;;;;;;;3.08;0.73;;;3.00;99.90;;;;;;5053514;28;20496;-74
2023/01/17 09:51:13;;;;;;;;;;;3.00;99.90;;;;;;5050901;28;20441;-74
2023/01/17 09:53:40;;;;;;;6.90;0.80;;;3.00;99.90;;;;;;5053874;28;20019;-74
2023/01/17 09:56:18;;;;;;;1.85;0.52;;;3.00;99.90;;;;;;5052440;28;20074;-74
2023/01/17 09:58:59;;;;;;;4.72;1.55;;;3.20;99.90;;;;;;5040805;28;20045;-74
2023/01/17 10:01:34;;;;;;;5.97;0.60;;;3.30;99.90;;;;;;5049137;28;20052;-74
2023/01/17 10:04:30;;;;;;;6.35;1.13;;;3.20;99.90;;;;;;5045464;28;20041;-74
2023/01/17 10:07:11;;;;;;;4.65;0.75;;;3.10;99.90;;;;;;5028851;28;20041;-74
2023/01/17 10:09:45;;;;;;;5.93;0.80;;;3.30;99.90;;;;;;5047756;28;20086;-74
2023/01/17 10:12:32;;;;;;;3.70;0.73;;;3.40;99.90;;;;;;5052053;28;20037;-74
2023/01/17 10:15:35;;;;;;;6.35;0.80;;;3.30;99.90;;;;;;5053139;28;20116;-75
2023/01/17 10:18:38;;;;;;;6.20;0.90;;;3.40;99.90;;;;;;5050241;28;20516;-75
2023/01/17 10:21:13;;;;;;;3.92;0.73;;;3.50;99.90;;;;;;5036736;28;20056;-75
2023/01/17 10:24:15;;;;;;;3.97;0.65;;;3.50;99.90;;;;;;5070096;28;20048;-75
2023/01/17 10:26:44;;;;;;;5.88;0.90;;;3.60;99.90;;;;;;5033357;28;20045;-75
2023/01/17 10:29:17;;;;;;;3.15;0.70;;;3.70;99.90;;;;;;5039068;28;20037;-75
2023/01/17 10:31:50;;;;;;;3.03;0.82;;;3.60;99.90;;;;;;5052735;28;20080;-75
2023/01/17 10:34:26;;;;;;;3.20;0.80;;;3.70;99.90;;;;;;5053523;28;20112;-75
2023/01/17 10:36:59;;;;;;;4.15;1.63;;;3.70;99.90;;;;;;5063916;28;20086;-75
2023/01/17 10:39:29;;;;;;;6.35;1.70;;;3.80;99.90;;;;;;5037453;28;20485;-75
2023/01/17 10:42:16;;;;;;;3.30;1.02;;;3.90;99.90;;;;;;5030286;28;20079;-75
2023/01/17 10:44:49;;;;;;;4.40;1.00;;;3.90;99.90;;;;;;5039024;28;20056;-75
2023/01/17 10:47:21;;;;;;;4.07;0.82;;;3.90;99.90;;;;;;5020110;28;20435;-75
2023/01/17 10:49:50;;;;;;;3.55;0.95;;;3.90;99.90;;;;;;5053361;28;20048;-75
2023/01/17 10:52:38;;;;;;;4.57;1.17;;;4.00;99.90;;;;;;5052447;28;20045;-75
2023/01/17 10:55:09;;;;;;;4.70;1.25;;;4.10;99.90;;;;;;5052873;28;20045;-75
2023/01/17 10:57:44;;;;;;;4.35;1.33;;;4.10;99.90;;;;;;5034508;28;20045;-76
2023/01/17 11:00:37;;;;;;;4.07;0.80;;;4.20;99.90;;;;;;5036612;28;20044;-75
2023/01/17 11:03:03;;;;;;;10.35;0.95;;;4.30;99.90;;;;;;5051064;28;20045;-75
2023/01/17 11:05:31;;;;;;;4.70;1.08;;;4.50;99.90;;;;;;5052467;28;20048;-75
2023/01/17 11:08:09;;;;;;;6.80;0.88;;;4.50;99.90;;;;;;5052380;28;20053;-75
2023/01/17 11:10:38;;;;;;;7.40;1.20;;;4.70;99.90;;;;;;5047559;28;20049;-76
2023/01/17 11:13:23;;;;;;;6.22;1.20;;;4.80;99.90;;;;;;5046846;28;20090;-76
2023/01/17 11:15:56;;;;;;;3.17;1.00;;;4.80;99.90;;;;;;5032453;28;20049;-76
2023/01/17 11:18:26;;;;;;;3.20;1.20;;;4.80;99.90;;;;;;5050236;28;20143;-75
2023/01/17 11:20:52;;;;;;;4.57;0.90;;;4.90;99.90;;;;;;5024105;28;20037;-76
2023/01/17 11:23:30;;;;;;;4.60;0.82;;;4.80;99.90;;;;;;5049832;28;20048;-75
2023/01/17 11:26:01;;;;;;;4.13;0.80;;;4.80;99.90;;;;;;5031701;28;20090;-75
2023/01/17 11:28:31;;;;;;;4.43;0.80;;;4.70;99.90;;;;;;5062382;28;20067;-75
2023/01/17 11:31:06;;;;;;;7.25;1.90;;;4.70;99.90;;;;;;5049435;28;20044;-75
2023/01/17 11:33:54;;;;;;;5.50;0.95;;;4.80;99.90;;;;;;5050480;28;20045;-75
2023/01/17 11:36:26;;;;;;;6.35;0.90;;;4.80;99.90;;;;;;5040228;28;20073;-75
2023/01/17 11:39:17;;;;;;;4.05;0.90;;;4.90;99.90;;;;;;5033124;28;20049;-76
2023/01/17 11:41:44;;;;;;;3.72;0.88;;;4.80;99.90;;;;;;5052385;28;20068;-75
2023/01/17 11:44:19;;;;;;;3.70;0.80;;;4.80;99.90;;;;;;5033651;28;20103;-75
2023/01/17 11:46:45;;;;;;;3.05;0.52;;;4.90;99.90;;;;;;5032163;28;20045;-75
2023/01/17 11:49:23;;;;;;;3.20;0.80;;;4.80;99.90;;;;;;5050060;28;20120;-75
2023/01/17 11:51:54;;;;;;;4.63;1.27;;;5.00;99.90;;;;;;5033932;28;20118;-76
2023/01/17 11:54:38;;;;;;;1.88;0.73;;;5.00;99.90;;;;;;5050287;28;20401;-76
2023/01/17 11:57:18;;;;;;;3.70;0.60;;;4.90;99.90;;;;;;5051273;28;20057;-76
2023/01/17 11:59:46;;;;;;;3.10;0.68;;;4.80;99.90;;;;;;5050223;28;20401;-75
2023/01/17 12:02:41;;;;;;;3.30;0.77;;;5.10;99.90;;;;;;5042547;28;20116;-76
2023/01/17 12:05:23;;;;;;;4.38;0.70;;;5.00;99.90;;;;;;5048348;28;20097;-75
2023/01/17 12:08:07;;;;;;;;;;;4.90;99.90;;;;;;5051179;28;20374;-75
2023/01/17 12:10:48;;;;;;;4.28;0.90;;;4.90;99.90;;;;;;5050550;28;19920;-75
2023/01/17 12:16:42;;;;;;;6.38;0.80;;;5.00;99.90;;;;;;5060421;28;20123;-75
2023/01/17 12:19:22;;;;;;;3.08;0.90;;;5.00;99.90;;;;;;5043374;28;20380;-76
2023/01/17 12:22:11;;;;;;;4.28;0.95;;;5.00;99.90;;;;;;5051245;28;20122;-76
2023/01/17 12:25:13;;;;;;;3.35;0.82;;;5.10;99.90;;;;;;5043513;28;20079;-75
2023/01/17 12:28:23;;;;;;;3.30;0.80;;;5.10;99.90;;;;;;5039327;28;20049;-75
2023/01/17 12:30:54;;;;;;;5.45;1.10;;;5.10;99.90;;;;;;5021293;28;20048;-75
2023/01/17 12:33:26;;;;;;;4.63;0.82;;;5.10;99.90;;;;;;5044948;28;20045;-76
2023/01/17 12:36:00;;;;;;;4.68;1.05;;;5.10;99.90;;;;;;5060933;28;20048;-76
2023/01/17 12:38:36;;;;;;;4.03;0.75;;;4.90;99.90;;;;;;5043725;28;20108;-75
2023/01/17 12:41:21;;;;;;;5.88;0.90;;;4.90;99.90;;;;;;5050286;28;20120;-75
2023/01/17 12:43:51;;;;;;;5.07;1.00;;;4.90;99.90;;;;;;5044048;28;20137;-76
2023/01/17 12:46:32;;;;;;;4.68;0.90;;;4.80;99.90;;;;;;5040039;28;20544;-76
2023/01/17 12:49:19;;;;;;;5.65;0.82;;;4.90;99.90;;;;;;5049353;28;20037;-75
2023/01/17 12:51:48;;;;;;;3.90;0.70;;;4.80;99.90;;;;;;5050433;28;20119;-76
2023/01/17 12:54:20;;;;;;;2.13;0.60;;;4.80;99.90;;;;;;5022590;28;20045;-75
2023/01/17 12:56:55;;;;;;;2.85;0.70;;;4.70;99.90;;;;;;5036194;28;20044;-75
2023/01/17 12:59:41;;;;;;;2.72;0.90;;;4.80;99.90;;;;;;5049481;28;20060;-75
2023/01/17 13:02:37;;;;;;;3.60;0.70;;;4.70;99.90;;;;;;5039646;28;20067;-75
2023/01/17 13:05:22;;;;;;;2.30;0.50;;;4.80;99.90;;;;;;5026188;28;20064;-75
2023/01/17 13:07:57;;;;;;;3.28;0.60;;;4.90;99.90;;;;;;5047818;28;20072;-75
2023/01/17 13:10:32;;;;;;;2.53;0.70;;;5.10;99.90;;;;;;5040013;28;20490;-76
2023/01/17 13:13:03;;;;;;;2.78;0.80;;;4.90;99.90;;;;;;5047287;28;20038;-75
2023/01/17 13:15:36;;;;;;;3.50;0.80;;;5.00;99.90;;;;;;5048707;28;20041;-75
2023/01/17 13:18:08;;;;;;;2.15;0.50;;;4.90;99.90;;;;;;5052435;28;20044;-75
2023/01/17 13:21:26;;;;;;;3.58;0.73;;;5.00;99.90;;;;;;5067618;28;20040;-76
2023/01/17 13:24:10;;;;;;;1.23;0.55;;;4.90;99.90;;;;;;5031161;28;20124;-76
2023/01/17 13:26:54;;;;;;;6.47;0.80;;;4.80;99.90;;;;;;5030904;28;20044;-76
2023/01/17 13:29:42;;;;;;;2.47;0.60;;;4.80;99.90;;;;;;5060064;28;20577;-76
2023/01/17 13:32:32;;;;;;;2.22;0.60;;;4.70;99.90;;;;;;5050121;28;20519;-76
2023/01/17 13:35:38;;;;;;;1.52;0.45;;;4.80;99.90;;;;;;5031721;28;20056;-76
2023/01/17 13:38:30;;;;;;;4.18;0.80;;;4.80;99.90;;;;;;5066763;28;20128;-76
2023/01/17 13:41:00;;;;;;;4.93;0.60;;;4.70;99.90;;;;;;5067418;28;20041;-76
2023/01/17 13:43:32;;;;;;;1.85;0.57;;;4.80;99.90;;;;;;5050268;28;20123;-76
2023/01/17 13:46:01;;;;;;;7.28;1.05;;;4.90;99.90;;;;;;5042649;28;20041;-76
2023/01/17 13:48:39;;;;;;;1.42;0.50;;;5.00;99.90;;;;;;5046409;28;20056;-76
2023/01/17 13:51:09;;;;;;;6.72;0.77;;;4.90;99.90;;;;;;5048949;28;20043;-76
2023/01/17 13:53:35;;;;;;;4.63;0.75;;;4.90;99.90;;;;;;5045902;28;20042;-76
2023/01/17 13:56:01;;;;;;;1.70;0.40;;;5.00;99.90;;;;;;5038392;28;20045;-76
2023/01/17 13:58:28;;;;;;;2.85;0.63;;;5.10;99.90;;;;;;5037389;28;20040;-77
2023/01/17 14:00:54;;;;;;;2.33;0.90;;;5.30;99.90;;;;;;5050966;28;20444;-77
2023/01/17 14:03:45;;;;;;;2.90;0.50;;;5.30;99.90;;;;;;5049924;28;20049;-76
2023/01/17 14:06:35;;;;;;;2.90;0.65;;;5.40;99.90;;;;;;5054307;28;20569;-76
2023/01/17 14:09:01;;;;;;;5.70;0.80;;;5.20;99.90;;;;;;5050980;28;20056;-76
2023/01/17 14:11:26;;;;;;;4.65;0.77;;;5.20;99.90;;;;;;5052992;28;20041;-76
2023/01/17 14:13:52;;;;;;;2.10;0.82;;;5.20;99.90;;;;;;5050166;28;20040;-76
2023/01/17 14:16:21;;;;;;;2.90;0.60;;;5.10;99.90;;;;;;5068541;28;20040;-76
2023/01/17 14:18:47;;;;;;;2.80;0.45;;;5.10;99.90;;;;;;5041785;28;20115;-76
2023/01/17 14:21:19;;;;;;;2.25;0.52;;;5.00;99.90;;;;;;5035946;28;20048;-76
2023/01/17 14:24:04;;;;;;;2.50;0.43;;;5.00;99.90;;;;;;5050883;28;20132;-77
2023/01/17 14:26:54;;;;;;;1.60;0.50;;;5.00;99.90;;;;;;5035455;28;20033;-76
2023/01/17 14:29:41;;;;;;;2.50;0.57;;;5.10;99.90;;;;;;5052331;28;20037;-76
2023/01/17 14:32:13;;;;;;;2.45;0.60;;;4.90;99.90;;;;;;5069033;28;20040;-76
2023/01/17 14:34:39;;;;;;;2.05;0.40;;;4.80;99.90;;;;;;5044212;28;20366;-76
2023/01/17 14:37:27;;;;;;;3.20;0.50;;;4.80;99.90;;;;;;5054147;28;20045;-76
2023/01/17 14:39:53;;;;;;;3.65;0.80;;;4.80;99.90;;;;;;5054397;28;20507;-76
2023/01/17 14:42:22;;;;;;;1.63;0.43;;;4.90;99.90;;;;;;5038616;28;20168;-76
2023/01/17 14:44:55;;;;;;;3.38;0.75;;;4.90;99.90;;;;;;5034277;28;20457;-76
2023/01/17 14:47:21;;;;;;;0.98;0.55;;;4.80;99.90;;;;;;5043995;28;20122;-76